KAEG

Double Eagle II Airport

Albuquerque, New Mexico, USA
METAR KAEG 230935Z AUTO 35003KT 10SM BKN065 BKN090 10/06 A3022 RMK AO2 LTG DSNT SW T00970063
Observed Flight Rules
Oct-23 @ 09:35 UTC (25 minutes ago) Visual Flight Rules
Wind Visibility Clouds
350° at 3 knots 10 miles
  • Broken at 6,500' AGL
  • Broken at 9,000' AGL
Temperatures Readings
Current 10°C / 50°F
Dewpoint 6°C / 43°F
Humidity 76%
Altimeter 30.22" Hg
Pressure 1023 hPa
Elevation 1779
METAR KAEG 230935Z AUTO 35003KT 10SM BKN065 BKN090 10/06 A3022 RMK AO2 LTG DSNT SW T00970063
Observed Flight Rules
Oct-23 @ 09:35 UTC
(25 minutes ago)
VFR
Wind Visibility
350° at 3 knots 10 miles
Clouds
  • Broken at 6,500' AGL
  • Broken at 9,000' AGL
Temperature Dewpoint
10°C / 50°F 6°C / 43°F
Humidity Altimeter Pressure
76% 30.22" Hg 1023 hPa